createdAt,value
2018-05-16T00:00:35.793Z,18.60
2018-05-16T00:01:13.193Z,18.70
2018-05-16T00:01:51.158Z,18.70
2018-05-16T00:02:28.430Z,18.70
2018-05-16T00:03:05.830Z,18.70
2018-05-16T00:03:44.050Z,18.80
2018-05-16T00:04:21.223Z,18.80
2018-05-16T00:04:58.559Z,18.80
2018-05-16T00:05:35.982Z,18.70
2018-05-16T00:06:13.300Z,18.70
2018-05-16T00:06:50.646Z,18.70
2018-05-16T00:07:28.005Z,18.70
2018-05-16T00:08:06.183Z,18.70
2018-05-16T00:08:44.378Z,18.60
2018-05-16T00:09:21.706Z,18.60
2018-05-16T00:09:59.096Z,18.60
2018-05-16T00:10:36.597Z,18.60
2018-05-16T00:11:13.940Z,18.60
2018-05-16T00:11:51.133Z,18.60
2018-05-16T00:12:28.510Z,18.50
2018-05-16T00:13:06.006Z,18.50
2018-05-16T00:13:43.335Z,18.60
2018-05-16T00:14:21.467Z,18.60
2018-05-16T00:14:58.834Z,18.60
2018-05-16T00:15:36.324Z,18.60
2018-05-16T00:16:14.310Z,18.60
2018-05-16T00:16:51.536Z,18.60
2018-05-16T00:17:28.735Z,18.60
2018-05-16T00:18:06.145Z,18.60
2018-05-16T00:18:43.554Z,18.60
2018-05-16T00:19:21.692Z,18.60
2018-05-16T00:19:59.890Z,18.60
2018-05-16T00:20:38.098Z,18.70
2018-05-16T00:21:15.507Z,18.70
2018-05-16T00:21:53.468Z,18.60
2018-05-16T00:22:30.895Z,18.70
2018-05-16T00:23:08.190Z,18.60
2018-05-16T00:23:45.441Z,18.70
2018-05-16T00:24:23.381Z,18.70
2018-05-16T00:25:00.843Z,18.70
2018-05-16T00:25:38.106Z,18.60
2018-05-16T00:26:15.386Z,18.60
2018-05-16T00:26:53.505Z,18.60
2018-05-16T00:27:30.803Z,18.60
2018-05-16T00:28:08.082Z,18.60
2018-05-16T00:28:45.324Z,18.60
2018-05-16T00:29:22.733Z,18.60
2018-05-16T00:30:00.893Z,18.50
2018-05-16T00:30:38.069Z,18.50
2018-05-16T00:31:16.299Z,18.40
2018-05-16T00:31:53.754Z,18.40
2018-05-16T00:32:31.201Z,18.40
2018-05-16T00:33:08.425Z,18.40
2018-05-16T00:33:45.847Z,18.00
2018-05-16T00:34:23.009Z,18.40
2018-05-16T00:35:00.460Z,18.40
2018-05-16T00:35:37.897Z,18.40
2018-05-16T00:36:16.094Z,18.40
2018-05-16T00:36:53.467Z,18.40
2018-05-16T00:37:30.703Z,18.40
2018-05-16T00:38:08.939Z,18.40
2018-05-16T00:38:46.268Z,18.40
2018-05-16T00:39:23.666Z,18.40
2018-05-16T00:40:01.788Z,18.40
2018-05-16T00:40:39.000Z,18.40
2018-05-16T00:41:16.201Z,18.40
2018-05-16T00:41:53.481Z,18.40
2018-05-16T00:42:31.596Z,18.40
2018-05-16T00:43:08.905Z,18.40
2018-05-16T00:43:47.066Z,18.50
2018-05-16T00:44:24.503Z,18.50
2018-05-16T00:45:02.650Z,18.50
2018-05-16T00:45:40.049Z,18.50
2018-05-16T00:46:18.216Z,18.50
2018-05-16T00:46:55.542Z,18.50
2018-05-16T00:47:33.676Z,18.40
2018-05-16T00:48:11.889Z,18.40
2018-05-16T00:48:49.316Z,18.40
2018-05-16T00:49:26.514Z,18.40
2018-05-16T00:50:03.943Z,18.50
2018-05-16T00:50:42.116Z,18.40
2018-05-16T00:51:19.548Z,18.40
2018-05-16T00:51:57.040Z,18.40
2018-05-16T00:52:34.397Z,18.40
2018-05-16T00:53:12.516Z,18.40
2018-05-16T00:53:49.788Z,18.40
2018-05-16T00:54:27.012Z,18.40
2018-05-16T00:55:05.154Z,18.40
2018-05-16T00:55:43.373Z,18.50
2018-05-16T00:56:20.789Z,18.50
2018-05-16T00:56:58.220Z,18.50
2018-05-16T00:57:35.403Z,18.60
2018-05-16T00:58:12.804Z,18.60
2018-05-16T00:58:50.111Z,18.60
2018-05-16T00:59:27.507Z,18.60
2018-05-16T01:00:04.758Z,18.60
2018-05-16T01:00:41.955Z,18.50
2018-05-16T01:01:20.100Z,18.50
2018-05-16T01:01:57.499Z,18.40
2018-05-16T01:02:34.719Z,18.50
2018-05-16T01:03:11.989Z,18.50
2018-05-16T01:03:49.405Z,18.50
2018-05-16T01:04:27.460Z,18.40
2018-05-16T01:05:04.842Z,18.40
2018-05-16T01:05:42.830Z,18.30
2018-05-16T01:06:20.177Z,18.40
2018-05-16T01:06:57.435Z,18.40
2018-05-16T01:07:34.751Z,18.40
2018-05-16T01:08:12.940Z,18.30
2018-05-16T01:08:50.369Z,18.30
2018-05-16T01:09:28.515Z,18.30
2018-05-16T01:10:05.819Z,18.30
2018-05-16T01:10:43.113Z,18.30
2018-05-16T01:11:21.056Z,18.20
2018-05-16T01:11:58.425Z,18.20
2018-05-16T01:12:35.705Z,18.10
2018-05-16T01:13:12.973Z,18.20
2018-05-16T01:13:51.082Z,18.20
2018-05-16T01:14:28.452Z,18.20
2018-05-16T01:15:05.852Z,18.20
2018-05-16T01:15:44.020Z,18.30
2018-05-16T01:16:21.421Z,18.30
2018-05-16T01:16:59.521Z,18.30
2018-05-16T01:17:36.714Z,18.20
2018-05-16T01:18:14.878Z,18.20
2018-05-16T01:18:53.048Z,18.20
2018-05-16T01:19:30.294Z,18.20
2018-05-16T01:20:07.689Z,18.20
2018-05-16T01:20:45.894Z,18.20
2018-05-16T01:21:23.274Z,18.20
2018-05-16T01:22:01.470Z,18.30
2018-05-16T01:22:39.706Z,18.30
2018-05-16T01:23:17.119Z,18.30
2018-05-16T01:23:54.618Z,18.30
2018-05-16T01:24:31.768Z,18.30
2018-05-16T01:25:09.994Z,18.30
2018-05-16T01:25:48.087Z,18.30
2018-05-16T01:26:25.485Z,18.20
2018-05-16T01:27:02.880Z,18.30
2018-05-16T01:27:41.065Z,18.20
2018-05-16T01:28:19.193Z,18.20
2018-05-16T01:28:57.212Z,18.30
2018-05-16T01:29:34.590Z,18.20
2018-05-16T01:30:12.793Z,18.30
2018-05-16T01:30:49.982Z,18.30
2018-05-16T01:31:27.473Z,18.40
2018-05-16T01:32:04.600Z,18.40
2018-05-16T01:32:42.015Z,18.40
2018-05-16T01:33:19.183Z,18.40
2018-05-16T01:33:57.150Z,18.40
2018-05-16T01:34:34.603Z,18.40
2018-05-16T01:35:11.789Z,18.40
2018-05-16T01:35:49.207Z,18.40
2018-05-16T01:36:27.395Z,18.50
2018-05-16T01:37:05.469Z,18.50
2018-05-16T01:37:42.802Z,18.40
2018-05-16T01:38:20.188Z,18.50
2018-05-16T01:38:57.528Z,18.50
2018-05-16T01:39:35.732Z,18.60
2018-05-16T01:40:12.977Z,18.60
2018-05-16T01:40:50.433Z,18.60
2018-05-16T01:41:27.617Z,18.40
2018-05-16T01:42:05.095Z,18.50
2018-05-16T01:42:43.303Z,18.40
2018-05-16T01:43:21.388Z,18.50
2018-05-16T01:43:58.746Z,18.40
2018-05-16T01:44:36.128Z,18.40
2018-05-16T01:45:14.314Z,18.40
2018-05-16T01:45:51.709Z,18.40
2018-05-16T01:46:29.697Z,18.40
2018-05-16T01:47:07.035Z,18.40
2018-05-16T01:47:45.214Z,18.50
2018-05-16T01:48:22.571Z,18.40
2018-05-16T01:48:59.964Z,18.50
2018-05-16T01:49:37.382Z,18.50
2018-05-16T01:50:14.791Z,18.40
2018-05-16T01:50:52.895Z,18.40
2018-05-16T01:51:30.174Z,18.40
2018-05-16T01:52:07.562Z,18.40
2018-05-16T01:52:45.539Z,18.50
2018-05-16T01:53:23.771Z,18.50
2018-05-16T01:54:01.101Z,18.50
2018-05-16T01:54:38.398Z,18.50
2018-05-16T01:55:15.738Z,18.40
2018-05-16T01:55:52.968Z,18.40
2018-05-16T01:56:31.131Z,18.40
2018-05-16T01:57:08.435Z,18.40
2018-05-16T01:57:46.611Z,18.40
2018-05-16T01:58:24.046Z,18.40
2018-05-16T01:59:01.421Z,18.40
2018-05-16T01:59:38.553Z,18.40
2018-05-16T02:00:16.018Z,18.40
2018-05-16T02:00:53.398Z,18.30
2018-05-16T02:01:30.831Z,18.30
2018-05-16T02:02:08.961Z,18.30
2018-05-16T02:02:46.409Z,18.30
2018-05-16T02:03:23.815Z,18.30
2018-05-16T02:04:01.192Z,18.30
2018-05-16T02:04:38.440Z,18.40
2018-05-16T02:05:15.909Z,18.40
2018-05-16T02:05:53.389Z,18.40
2018-05-16T02:06:31.634Z,18.40
2018-05-16T02:07:09.078Z,18.40
2018-05-16T02:07:46.446Z,18.50
2018-05-16T02:08:24.673Z,18.50
2018-05-16T02:09:02.804Z,18.40
2018-05-16T02:09:40.128Z,18.40
2018-05-16T02:10:17.370Z,18.40
2018-05-16T02:10:54.606Z,18.40
2018-05-16T02:11:31.986Z,18.40
2018-05-16T02:12:10.156Z,18.40
2018-05-16T02:12:47.559Z,18.40
2018-05-16T02:13:25.522Z,18.40
2018-05-16T02:14:02.950Z,18.30
2018-05-16T02:14:40.352Z,18.30
2018-05-16T02:15:18.362Z,18.40
2018-05-16T02:15:56.565Z,18.40
2018-05-16T02:16:33.689Z,18.40
2018-05-16T02:17:11.938Z,18.40
2018-05-16T02:17:49.390Z,18.30
2018-05-16T02:18:26.787Z,18.40
2018-05-16T02:19:03.930Z,18.40
2018-05-16T02:19:41.312Z,18.40
2018-05-16T02:20:19.525Z,18.40
2018-05-16T02:20:57.764Z,18.40
2018-05-16T02:21:35.826Z,18.40
2018-05-16T02:22:13.273Z,18.40
2018-05-16T02:22:50.665Z,18.40
2018-05-16T02:23:27.880Z,18.40
2018-05-16T02:24:05.963Z,18.40
2018-05-16T02:24:43.150Z,18.40
2018-05-16T02:25:20.358Z,18.30
2018-05-16T02:25:58.583Z,18.30
2018-05-16T02:26:36.833Z,18.30
2018-05-16T02:27:14.098Z,18.10
2018-05-16T02:27:51.286Z,18.30
2018-05-16T02:28:28.661Z,18.30
2018-05-16T02:29:06.049Z,18.30
2018-05-16T02:29:43.538Z,18.30
2018-05-16T02:30:21.643Z,18.20
2018-05-16T02:30:59.851Z,18.30
2018-05-16T02:31:37.852Z,18.30
2018-05-16T02:32:16.100Z,18.20
2018-05-16T02:32:53.396Z,18.20
2018-05-16T02:33:30.671Z,18.20
2018-05-16T02:34:08.081Z,18.20
2018-05-16T02:34:46.067Z,18.10
2018-05-16T02:35:23.407Z,18.10
2018-05-16T02:36:00.733Z,18.10
2018-05-16T02:36:38.925Z,18.20
2018-05-16T02:37:16.333Z,18.10
2018-05-16T02:37:54.467Z,18.30
2018-05-16T02:38:32.590Z,18.30
2018-05-16T02:39:09.804Z,18.30
2018-05-16T02:39:47.279Z,18.30
2018-05-16T02:40:24.494Z,18.30
2018-05-16T02:41:01.891Z,18.30
2018-05-16T02:41:39.872Z,18.30
2018-05-16T02:42:17.090Z,18.30
2018-05-16T02:42:54.399Z,18.30
2018-05-16T02:43:31.693Z,18.40
2018-05-16T02:44:09.035Z,18.40
2018-05-16T02:44:46.389Z,18.40
2018-05-16T02:45:24.578Z,18.40
2018-05-16T02:46:02.534Z,18.30
2018-05-16T02:46:39.758Z,18.30
2018-05-16T02:47:17.989Z,18.40
2018-05-16T02:47:55.323Z,18.30
2018-05-16T02:48:33.559Z,18.30
2018-05-16T02:49:11.584Z,18.30
2018-05-16T02:49:48.828Z,18.30
2018-05-16T02:50:26.225Z,18.30
2018-05-16T02:51:03.547Z,18.30
2018-05-16T02:51:40.826Z,18.30
2018-05-16T02:52:18.093Z,18.30
2018-05-16T02:52:55.261Z,18.30
2018-05-16T02:53:32.523Z,18.30
2018-05-16T02:54:09.930Z,18.30
2018-05-16T02:54:47.539Z,18.40
2018-05-16T02:55:24.767Z,18.40
2018-05-16T02:56:02.135Z,18.40
2018-05-16T02:56:39.586Z,18.50
2018-05-16T02:57:17.034Z,18.50
2018-05-16T02:57:54.488Z,18.50
2018-05-16T02:58:32.610Z,18.50
2018-05-16T02:59:09.846Z,18.50
2018-05-16T02:59:47.075Z,18.50
2018-05-16T03:00:24.287Z,18.40
2018-05-16T03:01:02.512Z,18.40
2018-05-16T03:01:40.751Z,18.40
2018-05-16T03:02:18.125Z,18.40
2018-05-16T03:02:55.418Z,18.40
2018-05-16T03:03:32.596Z,18.40
2018-05-16T03:04:09.956Z,18.40
2018-05-16T03:04:48.102Z,18.50
2018-05-16T03:05:26.315Z,18.50
2018-05-16T03:06:04.493Z,18.50
2018-05-16T03:06:41.823Z,18.50
2018-05-16T03:07:20.000Z,18.60
2018-05-16T03:07:57.205Z,18.60
2018-05-16T03:08:34.611Z,18.60
2018-05-16T03:09:11.879Z,18.50
2018-05-16T03:09:49.139Z,18.50
2018-05-16T03:10:26.576Z,18.50
2018-05-16T03:11:03.995Z,18.50
2018-05-16T03:11:41.385Z,18.50
2018-05-16T03:12:19.597Z,18.50
2018-05-16T03:12:57.569Z,18.60
2018-05-16T03:13:35.082Z,18.50
2018-05-16T03:14:12.443Z,18.50
2018-05-16T03:14:49.614Z,18.50
2018-05-16T03:15:26.851Z,18.40
2018-05-16T03:16:04.771Z,18.40
2018-05-16T03:16:42.980Z,18.40
2018-05-16T03:17:20.954Z,18.40
2018-05-16T03:17:58.317Z,18.40
2018-05-16T03:18:36.537Z,18.50
2018-05-16T03:19:13.951Z,18.40
2018-05-16T03:19:51.266Z,18.50
2018-05-16T03:20:29.280Z,18.50
2018-05-16T03:21:07.466Z,18.50
2018-05-16T03:21:44.921Z,18.50
2018-05-16T03:22:23.148Z,18.60
2018-05-16T03:23:01.343Z,18.60
2018-05-16T03:23:38.735Z,18.60
2018-05-16T03:24:16.202Z,18.70
2018-05-16T03:24:54.398Z,18.60
2018-05-16T03:25:31.769Z,18.60
2018-05-16T03:26:09.229Z,18.70
2018-05-16T03:26:46.531Z,18.70
2018-05-16T03:27:23.966Z,18.70
2018-05-16T03:28:01.354Z,18.70
2018-05-16T03:28:38.713Z,18.70
2018-05-16T03:29:15.968Z,18.70
2018-05-16T03:29:54.055Z,18.60
2018-05-16T03:30:31.328Z,18.60
2018-05-16T03:31:08.682Z,18.60
2018-05-16T03:31:46.858Z,18.70
2018-05-16T03:32:24.272Z,18.80
2018-05-16T03:33:01.420Z,18.70
2018-05-16T03:33:39.539Z,18.70
2018-05-16T03:34:16.786Z,18.70
2018-05-16T03:34:54.073Z,18.60
2018-05-16T03:35:31.451Z,18.60
2018-05-16T03:36:09.433Z,18.60
2018-05-16T03:36:46.746Z,18.60
2018-05-16T03:37:24.716Z,18.70
2018-05-16T03:38:02.057Z,18.60
2018-05-16T03:38:39.507Z,18.70
2018-05-16T03:39:16.827Z,18.70
2018-05-16T03:39:54.118Z,18.70
2018-05-16T03:40:32.194Z,18.70
2018-05-16T03:41:09.658Z,18.70
2018-05-16T03:41:46.843Z,18.70
2018-05-16T03:42:24.243Z,18.70
2018-05-16T03:43:01.668Z,18.80
2018-05-16T03:43:39.065Z,18.70
2018-05-16T03:44:16.438Z,18.70
2018-05-16T03:44:53.879Z,18.60
2018-05-16T03:45:31.281Z,18.60
2018-05-16T03:46:08.578Z,18.60
2018-05-16T03:46:45.854Z,18.60
2018-05-16T03:47:23.946Z,18.50
2018-05-16T03:48:01.386Z,18.60
2018-05-16T03:48:38.718Z,18.60
2018-05-16T03:49:16.685Z,18.60
2018-05-16T03:49:53.970Z,18.50
2018-05-16T03:50:31.157Z,18.50
2018-05-16T03:51:08.325Z,18.50
2018-05-16T03:51:45.723Z,18.60
2018-05-16T03:52:22.902Z,18.60
2018-05-16T03:53:00.101Z,18.50
2018-05-16T03:53:38.333Z,18.50
2018-05-16T03:54:15.597Z,18.50
2018-05-16T03:54:52.950Z,18.50
2018-05-16T03:55:31.079Z,18.50
2018-05-16T03:56:09.271Z,18.50
2018-05-16T03:56:46.698Z,18.40
2018-05-16T03:57:23.835Z,18.50
2018-05-16T03:58:02.001Z,18.50
2018-05-16T03:58:39.334Z,18.40
2018-05-16T03:59:16.713Z,18.40
2018-05-16T03:59:54.172Z,18.40
2018-05-16T04:00:32.331Z,18.40
2018-05-16T04:01:09.707Z,18.30
2018-05-16T04:01:47.094Z,18.40
2018-05-16T04:02:24.562Z,18.40
2018-05-16T04:03:02.666Z,18.40
2018-05-16T04:03:40.013Z,18.30
2018-05-16T04:04:18.135Z,18.40
2018-05-16T04:04:56.267Z,18.50
2018-05-16T04:05:34.317Z,18.50
2018-05-16T04:06:12.526Z,18.50
2018-05-16T04:06:50.751Z,18.40
2018-05-16T04:07:27.996Z,18.40
2018-05-16T04:08:05.229Z,18.40
2018-05-16T04:08:42.634Z,18.40
2018-05-16T04:09:20.842Z,18.40
2018-05-16T04:09:58.124Z,18.40
2018-05-16T04:10:35.295Z,18.40
2018-05-16T04:11:12.680Z,18.40
2018-05-16T04:11:50.191Z,18.50
2018-05-16T04:12:27.463Z,18.50
2018-05-16T04:13:04.580Z,18.50
2018-05-16T04:13:41.916Z,18.50
2018-05-16T04:15:45.412Z,18.50
2018-05-16T04:16:23.329Z,18.50
2018-05-16T04:17:01.317Z,18.50
2018-05-16T04:17:39.513Z,18.40
2018-05-16T04:18:17.491Z,18.40
2018-05-16T04:18:54.946Z,18.40
2018-05-16T04:19:32.232Z,18.40
2018-05-16T04:20:09.707Z,18.50
2018-05-16T04:20:47.095Z,18.50
2018-05-16T04:21:25.220Z,18.50
2018-05-16T04:22:02.527Z,18.50
2018-05-16T04:22:39.977Z,18.60
2018-05-16T04:23:18.157Z,18.50
2018-05-16T04:23:56.149Z,18.50
2018-05-16T04:24:33.399Z,18.50
2018-05-16T04:25:10.837Z,18.50
2018-05-16T04:25:48.290Z,18.50
2018-05-16T04:26:25.651Z,18.50
2018-05-16T04:27:03.638Z,18.50
2018-05-16T04:27:40.887Z,18.50
2018-05-16T04:28:18.334Z,18.50
2018-05-16T04:28:55.790Z,18.50
2018-05-16T04:29:33.130Z,18.50
2018-05-16T04:30:10.526Z,18.50
2018-05-16T04:30:47.803Z,18.40
2018-05-16T04:31:25.057Z,18.50
2018-05-16T04:32:02.431Z,18.50
2018-05-16T04:32:39.959Z,18.40
2018-05-16T04:33:17.179Z,18.50
2018-05-16T04:33:54.587Z,18.60
2018-05-16T04:34:31.874Z,18.60
2018-05-16T04:35:09.160Z,18.60
2018-05-16T04:35:46.574Z,18.60
2018-05-16T04:36:24.807Z,18.70
2018-05-16T04:37:02.206Z,18.60
2018-05-16T04:38:20.114Z,18.60
2018-05-16T04:38:57.470Z,18.60
2018-05-16T04:39:34.740Z,18.70
2018-05-16T04:40:12.213Z,18.70
2018-05-16T04:40:49.691Z,18.70
2018-05-16T04:41:27.114Z,18.80
2018-05-16T04:42:04.542Z,18.70
2018-05-16T04:42:41.805Z,18.60
2018-05-16T04:43:19.126Z,18.60
2018-05-16T04:43:56.243Z,18.50
2018-05-16T04:44:33.632Z,18.60
2018-05-16T04:45:11.855Z,18.70
2018-05-16T04:45:50.075Z,18.70
2018-05-16T04:46:28.263Z,18.60
2018-05-16T04:47:05.690Z,18.60
2018-05-16T04:47:42.938Z,18.70
2018-05-16T04:48:20.314Z,18.70
2018-05-16T04:48:58.528Z,18.70
2018-05-16T04:49:36.583Z,18.80
2018-05-16T04:50:14.013Z,18.70
2018-05-16T04:50:52.267Z,18.80
2018-05-16T04:51:29.650Z,18.70
2018-05-16T04:52:07.724Z,18.70
2018-05-16T04:52:45.087Z,18.70
2018-05-16T04:53:23.303Z,18.60
2018-05-16T04:54:01.472Z,18.60
2018-05-16T04:54:38.847Z,18.60
2018-05-16T04:55:16.292Z,18.60
2018-05-16T04:55:54.354Z,18.70
2018-05-16T04:56:31.656Z,18.60
2018-05-16T04:57:09.810Z,18.70
2018-05-16T04:57:47.998Z,18.80
2018-05-16T04:58:25.370Z,18.80
2018-05-16T04:59:02.832Z,18.80
2018-05-16T04:59:41.046Z,18.80
2018-05-16T05:00:18.375Z,18.80
2018-05-16T05:00:56.381Z,18.90
2018-05-16T05:01:33.738Z,18.90
2018-05-16T05:02:11.052Z,18.90
2018-05-16T05:02:49.258Z,19.00
2018-05-16T05:03:26.446Z,19.00
2018-05-16T05:04:04.629Z,18.90
2018-05-16T05:04:41.898Z,18.90
2018-05-16T05:05:19.224Z,18.90
2018-05-16T05:05:56.534Z,18.90
2018-05-16T05:06:33.763Z,18.80
2018-05-16T05:07:11.947Z,18.90
2018-05-16T05:07:50.139Z,18.90
2018-05-16T05:08:27.410Z,18.90
2018-05-16T05:09:04.579Z,18.90
2018-05-16T05:09:42.757Z,18.90
2018-05-16T05:10:19.965Z,18.90
2018-05-16T05:10:57.260Z,18.80
2018-05-16T05:11:34.487Z,18.80
2018-05-16T05:12:11.733Z,18.70
2018-05-16T05:12:49.219Z,18.60
2018-05-16T05:13:27.419Z,18.50
2018-05-16T05:14:04.710Z,18.50
2018-05-16T05:14:42.698Z,18.60
2018-05-16T05:15:19.948Z,18.60
2018-05-16T05:15:57.359Z,18.70
2018-05-16T05:16:34.594Z,18.70
2018-05-16T05:17:12.699Z,18.70
2018-05-16T05:17:49.970Z,18.70
2018-05-16T05:18:27.297Z,18.70
2018-05-16T05:19:04.752Z,18.70
2018-05-16T05:19:41.925Z,18.60
2018-05-16T05:20:19.987Z,18.50
2018-05-16T05:20:57.412Z,18.50
2018-05-16T05:21:35.482Z,18.40
2018-05-16T05:22:13.689Z,18.40
2018-05-16T05:22:51.054Z,18.40
2018-05-16T05:23:28.265Z,18.40
2018-05-16T05:24:05.521Z,18.30
2018-05-16T05:24:42.815Z,18.30
2018-05-16T05:25:20.022Z,18.30
2018-05-16T05:25:57.266Z,18.40
2018-05-16T05:26:34.591Z,18.40
2018-05-16T05:27:11.982Z,18.50
2018-05-16T05:27:49.406Z,18.60
2018-05-16T05:28:27.522Z,18.50
2018-05-16T05:29:05.733Z,18.50
2018-05-16T05:29:43.825Z,18.50
2018-05-16T05:30:21.957Z,18.50
2018-05-16T05:30:59.339Z,18.50
2018-05-16T05:31:37.536Z,18.40
2018-05-16T05:32:14.726Z,18.40
2018-05-16T05:32:52.140Z,18.40
2018-05-16T05:33:30.345Z,18.50
2018-05-16T05:34:07.629Z,18.50
2018-05-16T05:34:44.993Z,18.50
2018-05-16T05:35:22.287Z,18.60
2018-05-16T05:36:00.474Z,18.50
2018-05-16T05:36:37.857Z,18.40
2018-05-16T05:37:16.027Z,18.40
2018-05-16T05:37:53.322Z,18.50
2018-05-16T05:38:30.843Z,18.40
2018-05-16T05:39:08.854Z,18.50
2018-05-16T05:39:46.953Z,18.60
2018-05-16T05:40:25.264Z,18.70
2018-05-16T05:41:02.463Z,18.60
2018-05-16T05:41:40.634Z,18.60
2018-05-16T05:42:18.007Z,18.60
2018-05-16T05:42:55.448Z,18.60
2018-05-16T05:43:33.479Z,18.50
2018-05-16T05:44:11.723Z,18.40
2018-05-16T05:44:48.927Z,18.40
2018-05-16T05:45:26.312Z,18.40
2018-05-16T05:46:04.317Z,18.30
2018-05-16T05:46:41.746Z,18.30
2018-05-16T05:47:19.005Z,18.30
2018-05-16T05:47:57.161Z,18.20
2018-05-16T05:48:35.400Z,18.20
2018-05-16T05:49:12.625Z,18.20
2018-05-16T05:49:50.193Z,18.20
2018-05-16T05:50:27.675Z,18.20
2018-05-16T05:51:05.043Z,18.30
2018-05-16T05:51:42.457Z,18.30
2018-05-16T05:52:19.927Z,18.40
2018-05-16T05:52:58.175Z,18.40
2018-05-16T05:53:35.979Z,18.40
2018-05-16T05:54:13.234Z,18.40
2018-05-16T05:54:50.539Z,18.50
2018-05-16T05:55:28.547Z,18.40
2018-05-16T05:56:06.730Z,18.40
2018-05-16T05:56:44.035Z,18.30
2018-05-16T05:57:21.407Z,18.30
2018-05-16T05:57:59.478Z,18.30
2018-05-16T05:58:36.984Z,18.20
2018-05-16T05:59:14.308Z,18.30
2018-05-16T05:59:51.724Z,18.20
2018-05-16T06:00:29.171Z,18.20
2018-05-16T06:01:07.412Z,18.30
2018-05-16T06:01:44.787Z,18.30
2018-05-16T06:02:22.164Z,18.40
2018-05-16T06:03:00.337Z,18.50
2018-05-16T06:03:38.430Z,18.60
2018-05-16T06:04:15.845Z,18.60
2018-05-16T06:04:54.031Z,18.50
2018-05-16T06:05:31.323Z,18.50
2018-05-16T06:06:08.558Z,18.60
2018-05-16T06:06:45.961Z,18.70
2018-05-16T06:07:23.405Z,18.60
2018-05-16T06:08:00.786Z,18.60
2018-05-16T06:08:38.165Z,18.60
2018-05-16T06:09:15.601Z,18.50
2018-05-16T06:09:52.999Z,18.50
2018-05-16T06:10:30.302Z,18.50
2018-05-16T06:11:08.440Z,18.50
2018-05-16T06:11:45.744Z,18.50
2018-05-16T06:12:23.136Z,18.50
2018-05-16T06:13:01.237Z,18.60
2018-05-16T06:13:38.464Z,18.60
2018-05-16T06:14:15.850Z,18.60
2018-05-16T06:14:53.954Z,18.40
2018-05-16T06:15:32.064Z,18.40
2018-05-16T06:16:09.511Z,18.40
2018-05-16T06:16:46.943Z,18.40
2018-05-16T06:17:24.398Z,18.40
2018-05-16T06:18:01.831Z,18.40
2018-05-16T06:18:39.121Z,18.40
2018-05-16T06:19:16.317Z,18.40
2018-05-16T06:19:53.802Z,18.40
2018-05-16T06:20:31.102Z,18.30
2018-05-16T06:21:09.298Z,18.30
2018-05-16T06:21:46.537Z,18.20
2018-05-16T06:22:23.795Z,18.20
2018-05-16T06:23:02.017Z,18.40
2018-05-16T06:23:39.446Z,18.30
2018-05-16T06:24:16.846Z,18.40
2018-05-16T06:24:54.864Z,18.40
2018-05-16T06:25:33.057Z,18.30
2018-05-16T06:26:10.499Z,18.30
2018-05-16T06:26:47.683Z,18.40
2018-05-16T06:27:25.903Z,18.40
2018-05-16T06:28:03.082Z,18.30
2018-05-16T06:28:41.281Z,18.30
2018-05-16T06:29:19.399Z,18.40
2018-05-16T06:29:56.607Z,18.40
2018-05-16T06:30:34.102Z,18.40
2018-05-16T06:31:11.548Z,18.40
2018-05-16T06:31:48.909Z,18.40
2018-05-16T06:32:26.276Z,18.50
2018-05-16T06:33:03.638Z,18.50
2018-05-16T06:33:41.003Z,18.40
2018-05-16T06:34:18.367Z,18.50
2018-05-16T06:34:55.824Z,18.40
2018-05-16T06:35:32.991Z,18.50
2018-05-16T06:36:10.214Z,18.40
2018-05-16T06:36:47.637Z,18.50
2018-05-16T06:37:25.781Z,18.60
2018-05-16T06:38:03.159Z,18.50
2018-05-16T06:38:41.344Z,18.60
2018-05-16T06:39:18.719Z,18.60
2018-05-16T06:39:56.042Z,18.60
2018-05-16T06:40:34.209Z,18.60
2018-05-16T06:41:12.381Z,18.60
2018-05-16T06:41:49.701Z,18.60
2018-05-16T06:42:26.979Z,18.60
2018-05-16T06:43:04.414Z,18.60
2018-05-16T06:43:41.762Z,18.70
2018-05-16T06:44:19.763Z,18.70
2018-05-16T06:44:57.977Z,18.70
2018-05-16T06:45:36.155Z,18.70
2018-05-16T06:46:13.508Z,18.70
2018-05-16T06:46:50.948Z,18.60
2018-05-16T06:47:28.424Z,18.70
2018-05-16T06:48:05.944Z,18.60
2018-05-16T06:48:43.386Z,18.60
2018-05-16T06:49:20.854Z,18.60
2018-05-16T06:49:58.030Z,18.60
2018-05-16T06:50:36.120Z,18.60
2018-05-16T06:51:14.715Z,18.60
2018-05-16T06:51:52.051Z,18.50
2018-05-16T06:52:29.360Z,18.50
2018-05-16T06:53:06.733Z,18.50
2018-05-16T06:53:43.938Z,18.50
2018-05-16T06:54:21.149Z,18.50
2018-05-16T06:54:58.632Z,18.50
2018-05-16T06:55:36.101Z,18.60
2018-05-16T06:56:13.337Z,18.60
2018-05-16T06:56:51.508Z,18.50
2018-05-16T06:57:28.982Z,18.50
2018-05-16T06:58:06.159Z,18.50
2018-05-16T06:58:43.302Z,18.60
2018-05-16T06:59:20.788Z,18.60
2018-05-16T06:59:58.934Z,18.70
2018-05-16T07:00:37.201Z,18.70
2018-05-16T07:01:14.575Z,18.70
2018-05-16T07:01:52.664Z,18.60
2018-05-16T07:02:30.885Z,18.60
2018-05-16T07:03:08.158Z,18.60
2018-05-16T07:03:46.368Z,18.60
2018-05-16T07:04:23.565Z,18.50
2018-05-16T07:05:00.984Z,18.50
2018-05-16T07:05:38.209Z,18.50
2018-05-16T07:06:16.382Z,18.50
2018-05-16T07:06:53.674Z,18.40
2018-05-16T07:07:30.894Z,18.50
2018-05-16T07:08:08.993Z,18.50
2018-05-16T07:08:46.343Z,18.50
2018-05-16T07:09:23.618Z,18.50
2018-05-16T07:10:01.744Z,18.60
2018-05-16T07:10:39.018Z,18.60
2018-05-16T07:11:16.442Z,18.60
2018-05-16T07:11:54.683Z,18.60
2018-05-16T07:12:31.911Z,18.60
2018-05-16T07:13:10.053Z,18.60
2018-05-16T07:13:47.298Z,18.50
2018-05-16T07:14:24.708Z,18.60
2018-05-16T07:15:02.088Z,18.60
2018-05-16T07:15:40.165Z,18.50
2018-05-16T07:16:18.394Z,18.50
2018-05-16T07:16:55.622Z,18.50
2018-05-16T07:17:33.844Z,18.50
2018-05-16T07:18:11.105Z,18.50
2018-05-16T07:18:48.598Z,18.50
2018-05-16T07:19:25.856Z,18.50
2018-05-16T07:20:03.318Z,18.50
2018-05-16T07:20:40.699Z,18.40
2018-05-16T07:21:18.093Z,18.40
2018-05-16T07:21:55.543Z,18.50
2018-05-16T07:22:32.982Z,18.40
2018-05-16T07:23:11.157Z,18.50
2018-05-16T07:23:48.571Z,18.50
2018-05-16T07:24:25.831Z,18.50
2018-05-16T07:25:03.247Z,18.60
2018-05-16T07:25:40.631Z,18.60
2018-05-16T07:26:18.830Z,18.60
2018-05-16T07:26:56.942Z,18.60
2018-05-16T07:27:34.327Z,18.50
2018-05-16T07:28:11.567Z,18.60
2018-05-16T07:28:49.463Z,18.60
2018-05-16T07:29:27.567Z,18.60
2018-05-16T07:30:04.976Z,18.60
2018-05-16T07:30:43.146Z,18.70
2018-05-16T07:31:20.515Z,18.70
2018-05-16T07:31:57.933Z,18.80
2018-05-16T07:32:35.886Z,18.70
2018-05-16T07:33:13.295Z,18.70
2018-05-16T07:33:50.668Z,18.70
2018-05-16T07:34:28.021Z,18.60
2018-05-16T07:35:06.123Z,18.60
2018-05-16T07:35:44.204Z,18.60
2018-05-16T07:36:21.430Z,18.60
2018-05-16T07:36:58.634Z,18.60
2018-05-16T07:37:36.850Z,18.60
2018-05-16T07:38:14.277Z,18.60
2018-05-16T07:38:52.421Z,18.50
2018-05-16T07:39:29.679Z,18.50
2018-05-16T07:40:07.906Z,18.30
2018-05-16T07:40:45.187Z,18.30
2018-05-16T07:41:23.377Z,18.50
2018-05-16T07:42:00.698Z,18.40
2018-05-16T07:42:38.137Z,18.50
2018-05-16T07:43:15.308Z,18.50
2018-05-16T07:43:52.740Z,18.40
2018-05-16T07:44:30.788Z,18.60
2018-05-16T07:45:08.010Z,18.60
2018-05-16T07:45:45.163Z,18.60
2018-05-16T07:46:22.470Z,18.70
2018-05-16T07:47:00.611Z,18.70
2018-05-16T07:47:37.912Z,18.70
2018-05-16T07:48:15.339Z,18.70
2018-05-16T07:48:52.639Z,18.80
2018-05-16T07:49:30.586Z,18.80
2018-05-16T07:50:07.825Z,18.80
2018-05-16T07:50:45.194Z,18.80
2018-05-16T07:51:23.434Z,18.80
2018-05-16T07:52:01.517Z,18.80
2018-05-16T07:52:38.875Z,18.80
2018-05-16T07:53:16.987Z,18.90
2018-05-16T07:53:54.490Z,18.80
2018-05-16T07:54:31.727Z,18.80
2018-05-16T07:55:09.967Z,18.80
2018-05-16T07:55:47.361Z,18.80
2018-05-16T07:56:25.310Z,18.80
2018-05-16T07:57:02.666Z,18.80
2018-05-16T07:57:39.921Z,18.80
2018-05-16T07:58:17.146Z,18.90
2018-05-16T07:58:54.612Z,18.90
2018-05-16T07:59:32.011Z,18.90
2018-05-16T08:00:09.468Z,19.00
2018-05-16T08:00:47.464Z,18.90
2018-05-16T08:01:25.452Z,18.90
2018-05-16T08:02:02.907Z,18.90
2018-05-16T08:02:41.055Z,18.80
2018-05-16T08:03:18.289Z,18.70
2018-05-16T08:03:56.384Z,18.70
2018-05-16T08:04:33.747Z,18.70
2018-05-16T08:05:11.863Z,18.80
2018-05-16T08:05:49.254Z,18.70
2018-05-16T08:06:27.456Z,18.70